Aérodrome :
LOGIN :

S'inscrire | Disclaimer

   EN    FR    IT 

 










Légende :    VFR   VFR Marginal   IFR   IFR Intensif   IFR Très Intensif
Visi : 
Plafond : 
>= 8 km
>= 3000ft
5 à 8 km
1000 à 3000 ft
1500m à 5 km
500 à 1000 ft
800 à 1500m
200 à 500 ft
< 800m
< 200 ft
Symboles :   Orages  Brouillard  Fortes neiges  Fortes précipitations  Vent > 20 kt
SIGMETs :   Divers  Orages  Givrage  Turbulence  Onde Orograph.  Cendres Volcan.






- Altitude de l'aérodrome : 659 ft
- Code IATA : LGG


EBLG - Liège

DERNIER METAR :
  • 241350Z 29004KT 6000 BKN010 00/M02 Q1023 NOSIG

METARs EXPIRÉS :
  • 241320Z 28004KT 240V330 6000 BKN009 M00/M02 Q1023 NOSIG
  • 241250Z 28003KT 220V310 6000 BKN009 00/M02 Q1023 NOSIG
  • 241220Z 28005KT 6000 BKN009 00/M02 Q1023 NOSIG
  • 241150Z 23003KT 160V280 6000 BKN009 00/M02 Q1023 NOSIG
  • 241120Z VRB02KT 6000 BKN009 00/M02 Q1024 NOSIG

TAF TAF EBLG
Valide du 24 à 12h jusqu'au 25 à 18h UTC


241100Z 2412/2518 22003KT 6000 BKN009
TEMPO 2412/2419 SCT008 SCT012
BECMG 2421/2423 1400 BCFG
PROB40
TEMPO 2500/2509 0500 FZFG FG BKN001



MET'MAP, la Météo Aéronautique d'un coup d'oeil ! - Copyright ORBIFLY Décembre 2007 - Disclaimer

ORBIFLY MET'MAP TEAM :

Programmation & Développement : Alexandra Zaïnal
Sur une idée originale de : Baudouin d'Aumeries
Assistance à la programmation : Marc-Olivier Méhu
Soutien technique & logistique : Manuel Goepfert

Contact : metmap@orbifly.com




SOURCES & CREDITS :

   NOAA